sensor_id;sensor_type;location;lat;lon;timestamp;P1;durP1;ratioP1;P2;durP2;ratioP2
29044;SDS011;16133;49.486;12.176;2024-03-02T00:01:39;60.45;;;23.40;;
29044;SDS011;16133;49.486;12.176;2024-03-02T00:04:04;58.10;;;22.52;;
29044;SDS011;16133;49.486;12.176;2024-03-02T00:06:31;59.53;;;24.05;;
29044;SDS011;16133;49.486;12.176;2024-03-02T00:08:58;56.47;;;22.77;;
29044;SDS011;16133;49.486;12.176;2024-03-02T00:11:24;61.42;;;23.50;;
29044;SDS011;16133;49.486;12.176;2024-03-02T00:13:51;54.45;;;22.15;;
29044;SDS011;16133;49.486;12.176;2024-03-02T00:16:18;51.65;;;22.52;;
29044;SDS011;16133;49.486;12.176;2024-03-02T00:18:43;56.65;;;22.02;;
29044;SDS011;16133;49.486;12.176;2024-03-02T00:21:09;53.83;;;21.42;;
29044;SDS011;16133;49.486;12.176;2024-03-02T00:23:34;55.30;;;22.80;;
29044;SDS011;16133;49.486;12.176;2024-03-02T00:26:00;59.10;;;21.83;;
29044;SDS011;16133;49.486;12.176;2024-03-02T00:28:36;55.40;;;20.77;;
29044;SDS011;16133;49.486;12.176;2024-03-02T00:31:05;57.00;;;23.23;;
29044;SDS011;16133;49.486;12.176;2024-03-02T00:33:33;55.08;;;22.10;;
29044;SDS011;16133;49.486;12.176;2024-03-02T00:35:59;56.20;;;22.50;;
29044;SDS011;16133;49.486;12.176;2024-03-02T00:38:26;62.13;;;22.48;;
29044;SDS011;16133;49.486;12.176;2024-03-02T00:40:53;54.03;;;21.40;;
29044;SDS011;16133;49.486;12.176;2024-03-02T00:46:03;58.95;;;22.80;;
29044;SDS011;16133;49.486;12.176;2024-03-02T00:48:28;53.58;;;22.42;;
29044;SDS011;16133;49.486;12.176;2024-03-02T00:50:56;49.88;;;20.33;;
29044;SDS011;16133;49.486;12.176;2024-03-02T00:53:22;55.05;;;20.17;;
29044;SDS011;16133;49.486;12.176;2024-03-02T00:55:50;54.53;;;22.58;;
29044;SDS011;16133;49.486;12.176;2024-03-02T00:58:16;49.63;;;21.85;;
29044;SDS011;16133;49.486;12.176;2024-03-02T01:00:41;53.67;;;22.15;;
29044;SDS011;16133;49.486;12.176;2024-03-02T01:03:06;56.20;;;21.83;;
29044;SDS011;16133;49.486;12.176;2024-03-02T01:05:32;61.13;;;23.50;;
29044;SDS011;16133;49.486;12.176;2024-03-02T01:07:58;55.72;;;22.08;;
29044;SDS011;16133;49.486;12.176;2024-03-02T01:10:23;58.00;;;22.65;;
29044;SDS011;16133;49.486;12.176;2024-03-02T01:12:50;58.58;;;23.25;;
29044;SDS011;16133;49.486;12.176;2024-03-02T01:15:16;64.57;;;24.33;;
29044;SDS011;16133;49.486;12.176;2024-03-02T01:17:41;63.00;;;23.38;;
29044;SDS011;16133;49.486;12.176;2024-03-02T01:20:07;60.30;;;23.88;;
29044;SDS011;16133;49.486;12.176;2024-03-02T01:22:34;61.13;;;24.23;;
29044;SDS011;16133;49.486;12.176;2024-03-02T01:25:00;59.75;;;22.77;;
29044;SDS011;16133;49.486;12.176;2024-03-02T01:27:26;55.42;;;21.10;;
29044;SDS011;16133;49.486;12.176;2024-03-02T01:29:52;52.35;;;21.52;;
29044;SDS011;16133;49.486;12.176;2024-03-02T01:32:17;54.63;;;22.85;;
29044;SDS011;16133;49.486;12.176;2024-03-02T01:34:43;55.75;;;21.55;;
29044;SDS011;16133;49.486;12.176;2024-03-02T01:37:08;64.93;;;23.65;;
29044;SDS011;16133;49.486;12.176;2024-03-02T01:39:35;58.67;;;22.67;;
29044;SDS011;16133;49.486;12.176;2024-03-02T01:42:00;59.45;;;22.63;;
29044;SDS011;16133;49.486;12.176;2024-03-02T01:44:26;57.85;;;22.58;;
29044;SDS011;16133;49.486;12.176;2024-03-02T01:46:51;55.50;;;22.17;;
29044;SDS011;16133;49.486;12.176;2024-03-02T01:49:16;55.92;;;22.20;;
29044;SDS011;16133;49.486;12.176;2024-03-02T01:51:42;50.45;;;20.80;;
29044;SDS011;16133;49.486;12.176;2024-03-02T01:54:07;64.45;;;22.58;;
29044;SDS011;16133;49.486;12.176;2024-03-02T01:56:32;57.58;;;21.75;;
29044;SDS011;16133;49.486;12.176;2024-03-02T01:58:58;54.58;;;21.75;;
29044;SDS011;16133;49.486;12.176;2024-03-02T02:01:24;48.17;;;21.00;;
29044;SDS011;16133;49.486;12.176;2024-03-02T02:03:49;55.08;;;20.73;;
29044;SDS011;16133;49.486;12.176;2024-03-02T02:06:14;52.70;;;19.90;;
29044;SDS011;16133;49.486;12.176;2024-03-02T02:08:40;67.53;;;23.83;;
29044;SDS011;16133;49.486;12.176;2024-03-02T02:11:06;56.55;;;21.10;;
29044;SDS011;16133;49.486;12.176;2024-03-02T02:13:31;48.65;;;20.13;;
29044;SDS011;16133;49.486;12.176;2024-03-02T02:16:04;58.88;;;21.60;;
29044;SDS011;16133;49.486;12.176;2024-03-02T02:18:30;55.70;;;20.13;;
29044;SDS011;16133;49.486;12.176;2024-03-02T02:20:55;62.53;;;22.67;;
29044;SDS011;16133;49.486;12.176;2024-03-02T02:23:20;60.67;;;22.67;;
29044;SDS011;16133;49.486;12.176;2024-03-02T02:25:46;66.40;;;22.95;;
29044;SDS011;16133;49.486;12.176;2024-03-02T02:28:11;57.78;;;22.08;;
29044;SDS011;16133;49.486;12.176;2024-03-02T02:30:36;57.92;;;22.35;;
29044;SDS011;16133;49.486;12.176;2024-03-02T02:33:02;62.88;;;22.52;;
29044;SDS011;16133;49.486;12.176;2024-03-02T02:35:27;58.58;;;21.27;;
29044;SDS011;16133;49.486;12.176;2024-03-02T02:37:54;55.25;;;20.40;;
29044;SDS011;16133;49.486;12.176;2024-03-02T02:40:20;58.20;;;21.13;;
29044;SDS011;16133;49.486;12.176;2024-03-02T02:42:46;55.40;;;21.52;;
29044;SDS011;16133;49.486;12.176;2024-03-02T02:45:11;60.03;;;21.73;;
29044;SDS011;16133;49.486;12.176;2024-03-02T02:47:39;56.40;;;20.52;;
29044;SDS011;16133;49.486;12.176;2024-03-02T02:50:08;64.72;;;23.02;;
29044;SDS011;16133;49.486;12.176;2024-03-02T02:52:35;57.10;;;22.05;;
29044;SDS011;16133;49.486;12.176;2024-03-02T02:55:04;69.75;;;24.80;;
29044;SDS011;16133;49.486;12.176;2024-03-02T02:57:34;61.58;;;21.60;;
29044;SDS011;16133;49.486;12.176;2024-03-02T03:00:11;72.05;;;23.73;;
29044;SDS011;16133;49.486;12.176;2024-03-02T03:02:41;60.72;;;22.27;;
29044;SDS011;16133;49.486;12.176;2024-03-02T03:05:07;72.93;;;23.85;;
29044;SDS011;16133;49.486;12.176;2024-03-02T03:07:33;65.93;;;23.20;;
29044;SDS011;16133;49.486;12.176;2024-03-02T03:09:59;61.47;;;22.85;;
29044;SDS011;16133;49.486;12.176;2024-03-02T03:12:25;64.13;;;22.02;;
29044;SDS011;16133;49.486;12.176;2024-03-02T03:14:51;64.72;;;22.52;;
29044;SDS011;16133;49.486;12.176;2024-03-02T03:17:16;58.47;;;22.52;;
29044;SDS011;16133;49.486;12.176;2024-03-02T03:19:42;64.35;;;23.83;;
29044;SDS011;16133;49.486;12.176;2024-03-02T03:22:07;71.82;;;23.83;;
29044;SDS011;16133;49.486;12.176;2024-03-02T03:24:33;60.58;;;22.92;;
29044;SDS011;16133;49.486;12.176;2024-03-02T03:26:58;64.32;;;22.35;;
29044;SDS011;16133;49.486;12.176;2024-03-02T03:29:23;70.97;;;23.42;;
29044;SDS011;16133;49.486;12.176;2024-03-02T03:31:49;64.70;;;22.73;;
29044;SDS011;16133;49.486;12.176;2024-03-02T03:34:14;60.90;;;22.95;;
29044;SDS011;16133;49.486;12.176;2024-03-02T03:36:41;69.85;;;23.90;;
29044;SDS011;16133;49.486;12.176;2024-03-02T03:39:06;63.65;;;22.48;;
29044;SDS011;16133;49.486;12.176;2024-03-02T03:41:32;59.80;;;21.55;;
29044;SDS011;16133;49.486;12.176;2024-03-02T03:43:57;66.72;;;22.98;;
29044;SDS011;16133;49.486;12.176;2024-03-02T03:46:22;59.33;;;22.27;;
29044;SDS011;16133;49.486;12.176;2024-03-02T03:48:48;64.63;;;22.80;;
29044;SDS011;16133;49.486;12.176;2024-03-02T03:51:13;62.83;;;20.95;;
29044;SDS011;16133;49.486;12.176;2024-03-02T03:53:39;63.20;;;22.67;;
29044;SDS011;16133;49.486;12.176;2024-03-02T03:56:04;63.22;;;20.48;;
29044;SDS011;16133;49.486;12.176;2024-03-02T03:58:30;60.75;;;21.55;;
29044;SDS011;16133;49.486;12.176;2024-03-02T04:00:55;53.33;;;21.38;;
29044;SDS011;16133;49.486;12.176;2024-03-02T04:03:21;58.40;;;21.55;;
29044;SDS011;16133;49.486;12.176;2024-03-02T04:05:46;55.38;;;21.77;;
29044;SDS011;16133;49.486;12.176;2024-03-02T04:08:11;60.50;;;21.15;;
29044;SDS011;16133;49.486;12.176;2024-03-02T04:10:37;66.35;;;22.02;;
29044;SDS011;16133;49.486;12.176;2024-03-02T04:13:02;62.22;;;22.08;;
29044;SDS011;16133;49.486;12.176;2024-03-02T04:15:28;66.78;;;22.38;;
29044;SDS011;16133;49.486;12.176;2024-03-02T04:17:53;56.72;;;20.40;;
29044;SDS011;16133;49.486;12.176;2024-03-02T04:20:20;59.58;;;21.98;;
29044;SDS011;16133;49.486;12.176;2024-03-02T04:22:45;52.28;;;19.48;;
29044;SDS011;16133;49.486;12.176;2024-03-02T04:25:10;56.35;;;20.67;;
29044;SDS011;16133;49.486;12.176;2024-03-02T04:27:36;60.47;;;21.75;;
29044;SDS011;16133;49.486;12.176;2024-03-02T04:30:01;54.25;;;19.80;;
29044;SDS011;16133;49.486;12.176;2024-03-02T04:32:28;56.72;;;21.33;;
29044;SDS011;16133;49.486;12.176;2024-03-02T04:34:54;56.05;;;20.17;;
29044;SDS011;16133;49.486;12.176;2024-03-02T04:37:19;54.53;;;19.33;;
29044;SDS011;16133;49.486;12.176;2024-03-02T04:39:45;59.25;;;21.35;;
29044;SDS011;16133;49.486;12.176;2024-03-02T04:42:10;58.55;;;21.40;;
29044;SDS011;16133;49.486;12.176;2024-03-02T04:44:35;61.35;;;21.27;;
29044;SDS011;16133;49.486;12.176;2024-03-02T04:47:03;56.90;;;21.73;;
29044;SDS011;16133;49.486;12.176;2024-03-02T04:49:28;53.15;;;20.20;;
29044;SDS011;16133;49.486;12.176;2024-03-02T04:51:53;50.15;;;19.52;;
29044;SDS011;16133;49.486;12.176;2024-03-02T04:54:19;49.40;;;17.90;;
29044;SDS011;16133;49.486;12.176;2024-03-02T04:56:44;47.88;;;18.63;;
29044;SDS011;16133;49.486;12.176;2024-03-02T04:59:14;58.95;;;21.23;;
29044;SDS011;16133;49.486;12.176;2024-03-02T05:01:39;51.70;;;21.95;;
29044;SDS011;16133;49.486;12.176;2024-03-02T05:04:05;57.05;;;22.17;;
29044;SDS011;16133;49.486;12.176;2024-03-02T05:06:30;62.10;;;21.45;;
29044;SDS011;16133;49.486;12.176;2024-03-02T05:08:55;59.35;;;21.48;;
29044;SDS011;16133;49.486;12.176;2024-03-02T05:11:21;62.78;;;19.95;;
29044;SDS011;16133;49.486;12.176;2024-03-02T05:14:02;52.35;;;19.48;;
29044;SDS011;16133;49.486;12.176;2024-03-02T05:16:27;54.05;;;21.05;;
29044;SDS011;16133;49.486;12.176;2024-03-02T05:18:53;57.05;;;18.77;;
29044;SDS011;16133;49.486;12.176;2024-03-02T05:21:18;53.90;;;19.33;;
29044;SDS011;16133;49.486;12.176;2024-03-02T05:23:43;55.63;;;22.25;;
29044;SDS011;16133;49.486;12.176;2024-03-02T05:26:09;55.00;;;21.08;;
29044;SDS011;16133;49.486;12.176;2024-03-02T05:28:37;58.40;;;22.40;;
29044;SDS011;16133;49.486;12.176;2024-03-02T05:31:03;58.33;;;21.98;;
29044;SDS011;16133;49.486;12.176;2024-03-02T05:33:28;59.10;;;21.58;;
29044;SDS011;16133;49.486;12.176;2024-03-02T05:35:56;53.60;;;21.38;;
29044;SDS011;16133;49.486;12.176;2024-03-02T05:38:21;60.63;;;21.67;;
29044;SDS011;16133;49.486;12.176;2024-03-02T05:40:47;55.28;;;21.60;;
29044;SDS011;16133;49.486;12.176;2024-03-02T05:43:12;61.70;;;21.92;;
29044;SDS011;16133;49.486;12.176;2024-03-02T05:45:38;63.22;;;20.77;;
29044;SDS011;16133;49.486;12.176;2024-03-02T05:48:04;54.85;;;19.83;;
29044;SDS011;16133;49.486;12.176;2024-03-02T05:50:32;56.17;;;20.27;;
29044;SDS011;16133;49.486;12.176;2024-03-02T05:52:57;51.47;;;20.80;;
29044;SDS011;16133;49.486;12.176;2024-03-02T05:55:23;63.63;;;22.40;;
29044;SDS011;16133;49.486;12.176;2024-03-02T05:57:49;55.83;;;19.90;;
29044;SDS011;16133;49.486;12.176;2024-03-02T06:00:28;66.28;;;22.58;;
29044;SDS011;16133;49.486;12.176;2024-03-02T06:02:53;55.85;;;19.92;;
29044;SDS011;16133;49.486;12.176;2024-03-02T06:05:19;57.47;;;20.75;;
29044;SDS011;16133;49.486;12.176;2024-03-02T06:07:44;55.40;;;20.38;;
29044;SDS011;16133;49.486;12.176;2024-03-02T06:10:10;55.35;;;21.33;;
29044;SDS011;16133;49.486;12.176;2024-03-02T06:12:36;58.05;;;21.80;;
29044;SDS011;16133;49.486;12.176;2024-03-02T06:15:01;60.72;;;22.55;;
29044;SDS011;16133;49.486;12.176;2024-03-02T06:17:27;67.63;;;23.35;;
29044;SDS011;16133;49.486;12.176;2024-03-02T06:19:52;67.25;;;22.35;;
29044;SDS011;16133;49.486;12.176;2024-03-02T06:22:17;59.72;;;20.88;;
29044;SDS011;16133;49.486;12.176;2024-03-02T06:24:44;61.33;;;21.75;;
29044;SDS011;16133;49.486;12.176;2024-03-02T06:27:09;64.55;;;23.38;;
29044;SDS011;16133;49.486;12.176;2024-03-02T06:29:35;63.97;;;23.05;;
29044;SDS011;16133;49.486;12.176;2024-03-02T06:32:00;62.85;;;22.85;;
29044;SDS011;16133;49.486;12.176;2024-03-02T06:34:26;57.22;;;21.63;;
29044;SDS011;16133;49.486;12.176;2024-03-02T06:36:51;53.55;;;20.25;;
29044;SDS011;16133;49.486;12.176;2024-03-02T06:39:17;47.50;;;18.48;;
29044;SDS011;16133;49.486;12.176;2024-03-02T06:41:42;51.45;;;18.92;;
29044;SDS011;16133;49.486;12.176;2024-03-02T06:44:08;49.42;;;19.65;;
29044;SDS011;16133;49.486;12.176;2024-03-02T06:46:33;45.60;;;18.73;;
29044;SDS011;16133;49.486;12.176;2024-03-02T06:48:58;49.10;;;18.52;;
29044;SDS011;16133;49.486;12.176;2024-03-02T06:51:24;50.63;;;18.77;;
29044;SDS011;16133;49.486;12.176;2024-03-02T06:53:49;50.90;;;18.33;;
29044;SDS011;16133;49.486;12.176;2024-03-02T06:56:14;56.20;;;21.70;;
29044;SDS011;16133;49.486;12.176;2024-03-02T06:58:40;48.15;;;20.88;;
29044;SDS011;16133;49.486;12.176;2024-03-02T07:01:05;55.88;;;21.10;;
29044;SDS011;16133;49.486;12.176;2024-03-02T07:03:31;58.08;;;20.33;;
29044;SDS011;16133;49.486;12.176;2024-03-02T07:05:57;50.47;;;19.10;;
29044;SDS011;16133;49.486;12.176;2024-03-02T07:08:23;63.65;;;22.75;;
29044;SDS011;16133;49.486;12.176;2024-03-02T07:10:48;54.20;;;21.50;;
29044;SDS011;16133;49.486;12.176;2024-03-02T07:13:14;68.10;;;25.08;;
29044;SDS011;16133;49.486;12.176;2024-03-02T07:15:39;59.88;;;23.52;;
29044;SDS011;16133;49.486;12.176;2024-03-02T07:18:10;59.65;;;23.95;;
29044;SDS011;16133;49.486;12.176;2024-03-02T07:20:36;69.30;;;27.77;;
29044;SDS011;16133;49.486;12.176;2024-03-02T07:23:03;82.50;;;32.65;;
29044;SDS011;16133;49.486;12.176;2024-03-02T07:25:29;92.32;;;37.47;;
29044;SDS011;16133;49.486;12.176;2024-03-02T07:27:55;266.95;;;99.30;;
29044;SDS011;16133;49.486;12.176;2024-03-02T07:30:20;257.77;;;97.03;;
29044;SDS011;16133;49.486;12.176;2024-03-02T07:32:46;98.07;;;41.85;;
29044;SDS011;16133;49.486;12.176;2024-03-02T07:35:12;93.47;;;42.25;;
29044;SDS011;16133;49.486;12.176;2024-03-02T07:37:38;73.60;;;32.83;;
29044;SDS011;16133;49.486;12.176;2024-03-02T07:40:04;66.20;;;28.80;;
29044;SDS011;16133;49.486;12.176;2024-03-02T07:42:30;66.90;;;25.20;;
29044;SDS011;16133;49.486;12.176;2024-03-02T07:44:55;59.97;;;23.70;;
29044;SDS011;16133;49.486;12.176;2024-03-02T07:47:21;58.00;;;23.92;;
29044;SDS011;16133;49.486;12.176;2024-03-02T07:49:46;52.50;;;21.25;;
29044;SDS011;16133;49.486;12.176;2024-03-02T07:52:11;70.53;;;26.92;;
29044;SDS011;16133;49.486;12.176;2024-03-02T07:54:40;64.70;;;23.33;;
29044;SDS011;16133;49.486;12.176;2024-03-02T07:57:05;60.45;;;23.23;;
29044;SDS011;16133;49.486;12.176;2024-03-02T07:59:34;72.80;;;24.73;;
29044;SDS011;16133;49.486;12.176;2024-03-02T08:01:59;64.32;;;25.17;;
29044;SDS011;16133;49.486;12.176;2024-03-02T08:04:25;64.38;;;24.23;;
29044;SDS011;16133;49.486;12.176;2024-03-02T08:06:51;70.70;;;28.10;;
29044;SDS011;16133;49.486;12.176;2024-03-02T08:09:16;68.15;;;24.40;;
29044;SDS011;16133;49.486;12.176;2024-03-02T08:11:41;60.78;;;25.05;;
29044;SDS011;16133;49.486;12.176;2024-03-02T08:14:07;62.15;;;23.67;;
29044;SDS011;16133;49.486;12.176;2024-03-02T08:16:32;68.90;;;25.80;;
29044;SDS011;16133;49.486;12.176;2024-03-02T08:18:58;58.58;;;26.27;;
29044;SDS011;16133;49.486;12.176;2024-03-02T08:21:24;63.70;;;26.73;;
29044;SDS011;16133;49.486;12.176;2024-03-02T08:23:50;66.43;;;23.70;;
29044;SDS011;16133;49.486;12.176;2024-03-02T08:26:15;72.45;;;29.60;;
29044;SDS011;16133;49.486;12.176;2024-03-02T08:28:41;64.65;;;23.88;;
29044;SDS011;16133;49.486;12.176;2024-03-02T08:31:06;60.15;;;23.13;;
29044;SDS011;16133;49.486;12.176;2024-03-02T08:33:32;56.00;;;21.52;;
29044;SDS011;16133;49.486;12.176;2024-03-02T08:35:58;65.28;;;25.05;;
29044;SDS011;16133;49.486;12.176;2024-03-02T08:38:24;53.53;;;21.67;;
29044;SDS011;16133;49.486;12.176;2024-03-02T08:40:49;67.63;;;23.58;;
29044;SDS011;16133;49.486;12.176;2024-03-02T08:43:15;68.20;;;26.15;;
29044;SDS011;16133;49.486;12.176;2024-03-02T08:45:41;57.47;;;23.40;;
29044;SDS011;16133;49.486;12.176;2024-03-02T08:48:09;56.67;;;25.27;;
29044;SDS011;16133;49.486;12.176;2024-03-02T08:50:35;64.03;;;25.15;;
29044;SDS011;16133;49.486;12.176;2024-03-02T08:53:02;61.03;;;22.55;;
29044;SDS011;16133;49.486;12.176;2024-03-02T08:55:30;56.22;;;21.42;;
29044;SDS011;16133;49.486;12.176;2024-03-02T08:57:56;51.40;;;21.63;;
29044;SDS011;16133;49.486;12.176;2024-03-02T09:00:22;54.28;;;21.73;;
29044;SDS011;16133;49.486;12.176;2024-03-02T09:02:48;63.38;;;24.05;;
29044;SDS011;16133;49.486;12.176;2024-03-02T09:05:13;49.53;;;20.73;;
29044;SDS011;16133;49.486;12.176;2024-03-02T09:07:38;63.47;;;24.77;;
29044;SDS011;16133;49.486;12.176;2024-03-02T09:10:04;58.50;;;22.95;;
29044;SDS011;16133;49.486;12.176;2024-03-02T09:12:31;61.83;;;22.27;;
29044;SDS011;16133;49.486;12.176;2024-03-02T09:14:56;57.65;;;21.67;;
29044;SDS011;16133;49.486;12.176;2024-03-02T09:17:22;59.38;;;22.52;;
29044;SDS011;16133;49.486;12.176;2024-03-02T09:19:48;54.70;;;22.48;;
29044;SDS011;16133;49.486;12.176;2024-03-02T09:22:13;55.95;;;22.98;;
29044;SDS011;16133;49.486;12.176;2024-03-02T09:24:38;51.88;;;20.40;;
29044;SDS011;16133;49.486;12.176;2024-03-02T09:27:04;58.38;;;21.75;;
29044;SDS011;16133;49.486;12.176;2024-03-02T09:29:30;54.47;;;20.65;;
29044;SDS011;16133;49.486;12.176;2024-03-02T09:31:56;47.72;;;19.27;;
29044;SDS011;16133;49.486;12.176;2024-03-02T09:34:21;56.67;;;21.20;;
29044;SDS011;16133;49.486;12.176;2024-03-02T09:36:48;44.85;;;18.02;;
29044;SDS011;16133;49.486;12.176;2024-03-02T09:39:16;48.40;;;17.67;;
29044;SDS011;16133;49.486;12.176;2024-03-02T09:41:42;47.40;;;20.60;;
29044;SDS011;16133;49.486;12.176;2024-03-02T09:44:09;44.95;;;17.73;;
29044;SDS011;16133;49.486;12.176;2024-03-02T09:46:34;38.95;;;17.60;;
29044;SDS011;16133;49.486;12.176;2024-03-02T09:49:01;54.22;;;21.50;;
29044;SDS011;16133;49.486;12.176;2024-03-02T09:51:27;46.53;;;19.98;;
29044;SDS011;16133;49.486;12.176;2024-03-02T09:53:52;48.08;;;19.83;;
29044;SDS011;16133;49.486;12.176;2024-03-02T09:56:20;47.60;;;18.33;;
29044;SDS011;16133;49.486;12.176;2024-03-02T09:58:46;41.90;;;18.05;;
29044;SDS011;16133;49.486;12.176;2024-03-02T10:01:12;41.10;;;18.15;;
29044;SDS011;16133;49.486;12.176;2024-03-02T10:03:38;42.70;;;17.33;;
29044;SDS011;16133;49.486;12.176;2024-03-02T10:08:45;42.13;;;16.20;;
29044;SDS011;16133;49.486;12.176;2024-03-02T10:11:11;41.92;;;16.48;;
29044;SDS011;16133;49.486;12.176;2024-03-02T10:14:12;38.50;;;16.23;;
29044;SDS011;16133;49.486;12.176;2024-03-02T10:16:42;43.38;;;17.70;;
29044;SDS011;16133;49.486;12.176;2024-03-02T10:19:19;42.95;;;18.15;;
29044;SDS011;16133;49.486;12.176;2024-03-02T10:24:19;40.88;;;17.10;;
29044;SDS011;16133;49.486;12.176;2024-03-02T10:26:46;39.00;;;17.27;;
29044;SDS011;16133;49.486;12.176;2024-03-02T10:29:12;43.45;;;17.08;;
29044;SDS011;16133;49.486;12.176;2024-03-02T10:31:38;37.35;;;15.65;;
29044;SDS011;16133;49.486;12.176;2024-03-02T10:34:05;30.02;;;14.98;;
29044;SDS011;16133;49.486;12.176;2024-03-02T10:36:32;37.83;;;15.55;;
29044;SDS011;16133;49.486;12.176;2024-03-02T10:39:00;34.92;;;15.15;;
29044;SDS011;16133;49.486;12.176;2024-03-02T10:41:27;35.60;;;15.25;;
29044;SDS011;16133;49.486;12.176;2024-03-02T10:43:53;33.13;;;14.55;;
29044;SDS011;16133;49.486;12.176;2024-03-02T10:46:26;33.25;;;14.52;;
29044;SDS011;16133;49.486;12.176;2024-03-02T10:48:54;33.60;;;14.82;;
29044;SDS011;16133;49.486;12.176;2024-03-02T10:51:20;32.85;;;14.10;;
29044;SDS011;16133;49.486;12.176;2024-03-02T10:53:45;34.17;;;14.50;;
29044;SDS011;16133;49.486;12.176;2024-03-02T10:56:11;32.47;;;13.63;;
29044;SDS011;16133;49.486;12.176;2024-03-02T10:58:44;34.40;;;13.77;;
29044;SDS011;16133;49.486;12.176;2024-03-02T11:01:11;29.08;;;13.35;;
29044;SDS011;16133;49.486;12.176;2024-03-02T11:03:38;32.38;;;14.63;;
29044;SDS011;16133;49.486;12.176;2024-03-02T11:06:07;30.70;;;13.60;;
29044;SDS011;16133;49.486;12.176;2024-03-02T11:08:33;29.55;;;13.73;;
29044;SDS011;16133;49.486;12.176;2024-03-02T11:11:06;29.38;;;13.38;;
29044;SDS011;16133;49.486;12.176;2024-03-02T11:13:35;34.30;;;14.88;;
29044;SDS011;16133;49.486;12.176;2024-03-02T11:16:06;35.20;;;16.13;;
29044;SDS011;16133;49.486;12.176;2024-03-02T11:18:37;28.02;;;13.50;;
29044;SDS011;16133;49.486;12.176;2024-03-02T11:21:05;30.85;;;14.20;;
29044;SDS011;16133;49.486;12.176;2024-03-02T11:23:32;31.42;;;13.60;;
29044;SDS011;16133;49.486;12.176;2024-03-02T11:28:43;34.33;;;15.13;;
29044;SDS011;16133;49.486;12.176;2024-03-02T11:31:09;28.02;;;11.55;;
29044;SDS011;16133;49.486;12.176;2024-03-02T11:33:34;27.23;;;12.32;;
29044;SDS011;16133;49.486;12.176;2024-03-02T11:35:59;28.73;;;12.40;;
29044;SDS011;16133;49.486;12.176;2024-03-02T11:38:32;29.15;;;12.13;;
29044;SDS011;16133;49.486;12.176;2024-03-02T11:41:16;22.27;;;10.30;;
29044;SDS011;16133;49.486;12.176;2024-03-02T11:43:42;24.90;;;11.93;;
29044;SDS011;16133;49.486;12.176;2024-03-02T11:46:09;27.05;;;13.50;;
29044;SDS011;16133;49.486;12.176;2024-03-02T11:48:35;38.08;;;16.02;;
29044;SDS011;16133;49.486;12.176;2024-03-02T11:51:02;28.45;;;12.05;;
29044;SDS011;16133;49.486;12.176;2024-03-02T11:53:28;29.10;;;13.45;;
29044;SDS011;16133;49.486;12.176;2024-03-02T11:55:57;41.17;;;14.80;;
29044;SDS011;16133;49.486;12.176;2024-03-02T11:58:23;27.73;;;12.13;;
29044;SDS011;16133;49.486;12.176;2024-03-02T12:00:55;29.58;;;12.80;;
29044;SDS011;16133;49.486;12.176;2024-03-02T12:03:22;25.05;;;12.18;;
29044;SDS011;16133;49.486;12.176;2024-03-02T12:05:50;22.75;;;10.75;;
29044;SDS011;16133;49.486;12.176;2024-03-02T12:08:16;25.95;;;10.93;;
29044;SDS011;16133;49.486;12.176;2024-03-02T12:10:41;27.55;;;12.70;;
29044;SDS011;16133;49.486;12.176;2024-03-02T12:13:07;32.30;;;14.95;;
29044;SDS011;16133;49.486;12.176;2024-03-02T12:15:35;26.38;;;11.70;;
29044;SDS011;16133;49.486;12.176;2024-03-02T12:18:01;23.42;;;11.38;;
29044;SDS011;16133;49.486;12.176;2024-03-02T12:20:28;29.20;;;12.35;;
29044;SDS011;16133;49.486;12.176;2024-03-02T12:22:55;25.63;;;12.15;;
29044;SDS011;16133;49.486;12.176;2024-03-02T12:25:23;23.40;;;10.75;;
29044;SDS011;16133;49.486;12.176;2024-03-02T12:27:49;26.10;;;11.50;;
29044;SDS011;16133;49.486;12.176;2024-03-02T12:30:19;21.48;;;9.73;;
29044;SDS011;16133;49.486;12.176;2024-03-02T12:32:46;22.88;;;10.30;;
29044;SDS011;16133;49.486;12.176;2024-03-02T12:35:13;25.15;;;10.43;;
29044;SDS011;16133;49.486;12.176;2024-03-02T12:37:48;21.35;;;9.20;;
29044;SDS011;16133;49.486;12.176;2024-03-02T12:40:16;21.92;;;10.43;;
29044;SDS011;16133;49.486;12.176;2024-03-02T12:42:43;20.88;;;9.52;;
29044;SDS011;16133;49.486;12.176;2024-03-02T12:45:09;21.00;;;10.32;;
29044;SDS011;16133;49.486;12.176;2024-03-02T12:47:35;27.02;;;11.80;;
29044;SDS011;16133;49.486;12.176;2024-03-02T12:50:03;23.25;;;9.85;;
29044;SDS011;16133;49.486;12.176;2024-03-02T12:52:29;19.48;;;9.90;;
29044;SDS011;16133;49.486;12.176;2024-03-02T12:54:55;17.33;;;8.60;;
29044;SDS011;16133;49.486;12.176;2024-03-02T12:57:27;21.92;;;10.15;;
29044;SDS011;16133;49.486;12.176;2024-03-02T13:02:29;18.30;;;8.68;;
29044;SDS011;16133;49.486;12.176;2024-03-02T13:04:55;17.55;;;9.10;;
29044;SDS011;16133;49.486;12.176;2024-03-02T13:07:22;17.08;;;7.70;;
29044;SDS011;16133;49.486;12.176;2024-03-02T13:09:52;19.27;;;8.35;;
29044;SDS011;16133;49.486;12.176;2024-03-02T13:12:20;17.17;;;7.90;;
29044;SDS011;16133;49.486;12.176;2024-03-02T13:14:49;26.13;;;12.95;;
29044;SDS011;16133;49.486;12.176;2024-03-02T13:17:17;18.45;;;10.05;;
29044;SDS011;16133;49.486;12.176;2024-03-02T13:19:55;22.08;;;10.55;;
29044;SDS011;16133;49.486;12.176;2024-03-02T13:22:23;18.95;;;9.32;;
29044;SDS011;16133;49.486;12.176;2024-03-02T13:24:52;17.92;;;9.65;;
29044;SDS011;16133;49.486;12.176;2024-03-02T13:27:21;19.88;;;9.57;;
29044;SDS011;16133;49.486;12.176;2024-03-02T13:29:46;19.60;;;9.63;;
29044;SDS011;16133;49.486;12.176;2024-03-02T13:32:13;20.00;;;9.93;;
29044;SDS011;16133;49.486;12.176;2024-03-02T13:34:42;20.40;;;9.68;;
29044;SDS011;16133;49.486;12.176;2024-03-02T13:37:08;17.67;;;8.15;;
29044;SDS011;16133;49.486;12.176;2024-03-02T13:39:34;16.35;;;7.88;;
29044;SDS011;16133;49.486;12.176;2024-03-02T13:42:05;18.55;;;8.18;;
29044;SDS011;16133;49.486;12.176;2024-03-02T13:44:33;17.85;;;7.88;;
29044;SDS011;16133;49.486;12.176;2024-03-02T13:46:59;31.45;;;13.30;;
29044;SDS011;16133;49.486;12.176;2024-03-02T13:49:25;22.05;;;10.48;;
29044;SDS011;16133;49.486;12.176;2024-03-02T13:51:58;22.38;;;10.35;;
29044;SDS011;16133;49.486;12.176;2024-03-02T13:54:25;20.83;;;9.32;;
29044;SDS011;16133;49.486;12.176;2024-03-02T13:56:51;19.10;;;8.25;;
29044;SDS011;16133;49.486;12.176;2024-03-02T13:59:17;18.35;;;7.03;;
29044;SDS011;16133;49.486;12.176;2024-03-02T14:01:42;15.40;;;7.30;;
29044;SDS011;16133;49.486;12.176;2024-03-02T14:04:08;18.98;;;8.25;;
29044;SDS011;16133;49.486;12.176;2024-03-02T14:06:33;20.73;;;9.88;;
29044;SDS011;16133;49.486;12.176;2024-03-02T14:08:59;23.75;;;10.88;;
29044;SDS011;16133;49.486;12.176;2024-03-02T14:11:24;23.50;;;10.20;;
29044;SDS011;16133;49.486;12.176;2024-03-02T14:13:50;24.85;;;11.05;;
29044;SDS011;16133;49.486;12.176;2024-03-02T14:16:19;22.05;;;9.57;;
29044;SDS011;16133;49.486;12.176;2024-03-02T14:18:45;20.77;;;9.63;;
29044;SDS011;16133;49.486;12.176;2024-03-02T14:21:10;20.35;;;9.68;;